createdAt,value
2022-09-03T00:01:43.954Z,12.30
2022-09-03T00:04:25.972Z,12.20
2022-09-03T00:07:01.277Z,11.20
2022-09-03T00:09:46.973Z,10.63
2022-09-03T00:12:25.000Z,10.30
2022-09-03T00:15:00.932Z,12.55
2022-09-03T00:17:50.642Z,15.60
2022-09-03T00:20:24.942Z,11.82
2022-09-03T00:22:55.703Z,11.20
2022-09-03T00:26:10.438Z,13.13
2022-09-03T00:28:59.879Z,13.05
2022-09-03T00:31:39.045Z,11.57
2022-09-03T00:34:15.512Z,10.52
2022-09-03T00:36:45.997Z,13.77
2022-09-03T00:39:16.787Z,15.95
2022-09-03T00:42:08.247Z,14.52
2022-09-03T00:45:00.487Z,15.60
2022-09-03T00:48:03.717Z,15.77
2022-09-03T00:50:46.429Z,13.93
2022-09-03T00:53:34.787Z,12.43
2022-09-03T00:56:31.758Z,13.27
2022-09-03T00:59:09.418Z,10.50
2022-09-03T01:01:48.043Z,14.80
2022-09-03T01:04:36.537Z,16.30
2022-09-03T01:07:16.091Z,13.85
2022-09-03T01:09:54.030Z,9.93
2022-09-03T01:13:05.802Z,11.90
2022-09-03T01:15:51.729Z,12.63
2022-09-03T01:19:06.690Z,11.93
2022-09-03T01:22:06.099Z,14.40
2022-09-03T01:24:53.546Z,14.75
2022-09-03T01:27:35.360Z,14.60
2022-09-03T01:30:11.102Z,11.85
2022-09-03T01:32:46.061Z,11.80
2022-09-03T01:35:21.939Z,14.15
2022-09-03T01:38:18.658Z,11.70
2022-09-03T01:41:29.009Z,16.20
2022-09-03T01:44:21.049Z,14.65
2022-09-03T01:46:58.600Z,13.98
2022-09-03T01:49:41.551Z,14.63
2022-09-03T01:52:16.321Z,13.50
2022-09-03T01:55:08.202Z,18.27
2022-09-03T01:57:42.050Z,15.75
2022-09-03T02:00:13.978Z,15.05
2022-09-03T02:02:43.684Z,16.45
2022-09-03T02:05:14.365Z,11.32
2022-09-03T02:07:53.170Z,21.15
2022-09-03T02:10:30.069Z,17.58
2022-09-03T02:13:20.613Z,17.77
2022-09-03T02:15:50.724Z,15.55
2022-09-03T02:18:23.598Z,13.60
2022-09-03T02:20:53.584Z,13.68
2022-09-03T02:23:24.732Z,10.50
2022-09-03T02:26:01.909Z,13.70
2022-09-03T02:28:32.052Z,11.88
2022-09-03T02:30:59.894Z,15.97
2022-09-03T02:33:27.880Z,11.02
2022-09-03T02:35:55.821Z,11.88
2022-09-03T02:38:26.580Z,10.70
2022-09-03T02:40:54.620Z,12.85
2022-09-03T02:43:49.856Z,11.38
2022-09-03T02:46:27.953Z,13.77
2022-09-03T02:48:56.203Z,11.90
2022-09-03T02:51:23.773Z,12.65
2022-09-03T02:53:51.865Z,12.88
2022-09-03T02:56:19.281Z,13.23
2022-09-03T02:58:46.637Z,12.43
2022-09-03T03:01:21.779Z,25.98
2022-09-03T03:03:51.543Z,11.05
2022-09-03T03:06:22.662Z,12.30
2022-09-03T03:11:18.663Z,11.82
2022-09-03T03:13:47.086Z,11.77
2022-09-03T03:16:15.919Z,12.85
2022-09-03T03:18:46.365Z,15.93
2022-09-03T03:21:16.543Z,14.00
2022-09-03T03:23:44.477Z,13.77
2022-09-03T03:26:14.491Z,13.40
2022-09-03T03:28:42.557Z,16.50
2022-09-03T03:31:16.368Z,11.90
2022-09-03T03:33:44.162Z,13.93
2022-09-03T03:36:14.695Z,15.10
2022-09-03T03:38:43.829Z,11.00
2022-09-03T03:41:14.021Z,16.52
2022-09-03T03:43:41.629Z,12.67
2022-09-03T03:46:10.425Z,13.10
2022-09-03T03:48:39.368Z,13.85
2022-09-03T03:51:09.162Z,15.88
2022-09-03T03:53:38.340Z,19.65
2022-09-03T03:56:11.391Z,17.05
2022-09-03T03:58:44.411Z,18.20
2022-09-03T04:01:20.467Z,25.90
2022-09-03T04:03:48.796Z,29.52
2022-09-03T04:06:19.238Z,21.30
2022-09-03T04:08:50.485Z,29.42
2022-09-03T04:11:21.580Z,26.73
2022-09-03T04:16:19.878Z,20.20
2022-09-03T04:18:49.397Z,25.58
2022-09-03T04:21:19.435Z,27.35
2022-09-03T04:23:48.698Z,19.65
2022-09-03T04:26:19.138Z,18.95
2022-09-03T04:28:47.081Z,21.88
2022-09-03T04:31:17.545Z,12.77
2022-09-03T04:33:45.796Z,13.90
2022-09-03T04:36:14.231Z,12.40
2022-09-03T04:38:44.004Z,15.15
2022-09-03T04:41:14.691Z,14.30
2022-09-03T04:43:43.543Z,14.52
2022-09-03T04:46:16.163Z,14.02
2022-09-03T04:48:49.101Z,12.63
2022-09-03T04:51:18.692Z,14.60
2022-09-03T04:53:48.013Z,14.15
2022-09-03T04:56:24.025Z,16.02
2022-09-03T04:58:57.061Z,13.02
2022-09-03T05:01:27.320Z,15.85
2022-09-03T05:03:56.633Z,12.37
2022-09-03T05:06:25.710Z,15.32
2022-09-03T05:08:54.427Z,11.43
2022-09-03T05:11:22.767Z,16.23
2022-09-03T05:13:51.931Z,16.98
2022-09-03T05:16:19.956Z,15.15
2022-09-03T05:18:48.411Z,21.38
2022-09-03T05:21:18.359Z,21.30
2022-09-03T05:23:47.631Z,16.35
2022-09-03T05:26:18.495Z,14.13
2022-09-03T05:28:46.725Z,14.43
2022-09-03T05:31:20.741Z,17.20
2022-09-03T05:33:51.053Z,15.15
2022-09-03T05:36:21.029Z,13.10
2022-09-03T05:38:48.984Z,18.63
2022-09-03T05:41:18.986Z,15.57
2022-09-03T05:43:52.068Z,18.42
2022-09-03T05:46:20.223Z,15.52
2022-09-03T05:48:47.830Z,15.60
2022-09-03T05:51:17.053Z,17.42
2022-09-03T05:53:46.604Z,16.63
2022-09-03T05:56:18.129Z,14.38
2022-09-03T05:58:53.588Z,12.45
2022-09-03T06:01:23.302Z,15.02
2022-09-03T06:03:58.710Z,15.23
2022-09-03T06:06:27.432Z,15.93
2022-09-03T06:08:58.365Z,16.73
2022-09-03T06:11:28.838Z,12.52
2022-09-03T06:13:58.071Z,13.57
2022-09-03T06:16:31.471Z,14.38
2022-09-03T06:19:07.304Z,14.40
2022-09-03T06:21:35.245Z,16.58
2022-09-03T06:24:03.227Z,15.15
2022-09-03T06:26:30.784Z,11.60
2022-09-03T06:28:58.391Z,11.32
2022-09-03T06:31:26.384Z,9.15
2022-09-03T06:33:54.920Z,10.05
2022-09-03T06:36:24.735Z,12.70
2022-09-03T06:38:54.064Z,15.48
2022-09-03T06:41:26.508Z,15.13
2022-09-03T06:43:59.332Z,15.05
2022-09-03T06:46:26.809Z,13.50
2022-09-03T06:48:55.669Z,18.00
2022-09-03T06:51:26.321Z,13.38
2022-09-03T06:54:02.118Z,12.07
2022-09-03T06:56:30.387Z,14.55
2022-09-03T06:58:59.771Z,10.98
2022-09-03T07:01:32.331Z,12.98
2022-09-03T07:04:02.053Z,14.00
2022-09-03T07:06:37.551Z,10.35
2022-09-03T07:09:16.388Z,10.32
2022-09-03T07:11:49.915Z,11.55
2022-09-03T07:14:19.643Z,10.45
2022-09-03T07:16:48.858Z,12.57
2022-09-03T07:19:17.253Z,8.57
2022-09-03T07:21:50.073Z,10.05
2022-09-03T07:24:19.954Z,9.85
2022-09-03T07:26:48.952Z,9.25
2022-09-03T07:29:20.599Z,9.05
2022-09-03T07:31:52.166Z,11.10
2022-09-03T07:34:22.231Z,8.95
2022-09-03T07:36:51.830Z,8.93
2022-09-03T07:39:20.149Z,10.43
2022-09-03T07:41:47.913Z,9.93
2022-09-03T07:44:19.681Z,11.13
2022-09-03T07:46:51.636Z,9.15
2022-09-03T07:49:21.276Z,10.45
2022-09-03T07:51:50.964Z,11.43
2022-09-03T07:54:18.431Z,13.93
2022-09-03T07:56:45.958Z,11.00
2022-09-03T07:59:13.711Z,10.65
2022-09-03T08:01:41.330Z,8.02
2022-09-03T08:04:11.018Z,8.98
2022-09-03T08:06:38.943Z,9.85
2022-09-03T08:09:10.009Z,11.38
2022-09-03T08:14:09.048Z,13.27
2022-09-03T08:16:39.748Z,11.57
2022-09-03T08:19:07.696Z,10.82
2022-09-03T08:21:35.781Z,12.38
2022-09-03T08:24:04.954Z,8.50
2022-09-03T08:26:34.908Z,9.02
2022-09-03T08:29:02.726Z,11.07
2022-09-03T08:31:30.847Z,7.55
2022-09-03T08:34:00.567Z,8.27
2022-09-03T08:36:30.336Z,8.20
2022-09-03T08:39:04.040Z,8.13
2022-09-03T08:41:53.186Z,6.45
2022-09-03T08:44:47.500Z,5.97
2022-09-03T08:47:28.804Z,6.10
2022-09-03T08:50:12.782Z,7.35
2022-09-03T08:52:49.212Z,7.45
2022-09-03T08:55:28.350Z,7.93
2022-09-03T08:58:16.540Z,6.57
2022-09-03T09:01:02.144Z,5.35
2022-09-03T09:03:59.541Z,5.25
2022-09-03T09:06:48.952Z,6.28
2022-09-03T09:09:35.577Z,6.68
2022-09-03T09:12:21.688Z,6.13
2022-09-03T09:15:26.575Z,7.38
2022-09-03T09:18:12.620Z,6.28
2022-09-03T09:21:01.175Z,7.75
2022-09-03T09:23:57.790Z,6.05
2022-09-03T09:26:25.300Z,7.75
2022-09-03T09:29:05.770Z,7.68
2022-09-03T09:31:39.355Z,5.68
2022-09-03T09:34:08.598Z,7.70
2022-09-03T09:36:51.160Z,5.82
2022-09-03T09:39:19.411Z,6.18
2022-09-03T09:42:09.693Z,5.38
2022-09-03T09:44:43.046Z,7.10
2022-09-03T09:47:31.754Z,5.97
2022-09-03T09:50:02.491Z,5.55
2022-09-03T09:52:31.754Z,7.65
2022-09-03T09:55:26.729Z,7.72
2022-09-03T09:58:04.601Z,4.78
2022-09-03T10:00:35.009Z,7.22
2022-09-03T10:03:02.527Z,6.93
2022-09-03T10:05:33.830Z,4.57
2022-09-03T10:08:21.274Z,4.38
2022-09-03T10:10:50.524Z,5.90
2022-09-03T10:13:36.527Z,4.50
2022-09-03T10:16:13.707Z,7.55
2022-09-03T10:19:17.602Z,4.10
2022-09-03T10:21:56.211Z,6.38
2022-09-03T10:24:35.017Z,4.32
2022-09-03T10:27:02.522Z,5.38
2022-09-03T10:29:30.298Z,9.70
2022-09-03T10:32:43.837Z,5.82
2022-09-03T10:35:20.867Z,5.75
2022-09-03T10:38:15.552Z,4.60
2022-09-03T10:41:13.983Z,6.47
2022-09-03T10:43:53.413Z,4.95
2022-09-03T10:46:29.052Z,4.82
2022-09-03T10:49:23.666Z,6.78
2022-09-03T10:52:03.733Z,4.47
2022-09-03T10:54:43.905Z,5.70
2022-09-03T10:57:32.552Z,4.43
2022-09-03T11:00:13.718Z,4.47
2022-09-03T11:05:40.513Z,4.53
2022-09-03T11:08:14.393Z,4.72
2022-09-03T11:10:54.963Z,5.78
2022-09-03T11:13:31.729Z,5.55
2022-09-03T11:16:12.280Z,3.53
2022-09-03T11:18:48.993Z,6.32
2022-09-03T11:21:19.931Z,6.38
2022-09-03T11:24:04.468Z,4.45
2022-09-03T11:26:34.055Z,5.10
2022-09-03T11:29:24.050Z,5.32
2022-09-03T11:32:01.639Z,3.88
2022-09-03T11:34:33.265Z,4.30
2022-09-03T11:37:19.192Z,5.30
2022-09-03T11:40:03.786Z,6.07
2022-09-03T11:42:38.264Z,8.73
2022-09-03T11:45:27.393Z,6.10
2022-09-03T11:47:55.148Z,6.38
2022-09-03T11:50:28.409Z,8.00
2022-09-03T11:53:23.307Z,7.80
2022-09-03T11:56:04.392Z,6.72
2022-09-03T11:58:40.750Z,6.22
2022-09-03T12:01:16.348Z,4.18
2022-09-03T12:04:08.315Z,5.57
2022-09-03T12:07:00.446Z,5.50
2022-09-03T12:09:52.533Z,5.72
2022-09-03T12:12:44.155Z,6.07
2022-09-03T12:15:22.608Z,5.38
2022-09-03T12:18:16.554Z,9.30
2022-09-03T12:20:44.416Z,5.95
2022-09-03T12:23:15.253Z,4.43
2022-09-03T12:25:49.662Z,5.45
2022-09-03T12:28:23.692Z,5.13
2022-09-03T12:30:53.603Z,4.13
2022-09-03T12:33:23.390Z,5.43
2022-09-03T12:36:02.181Z,5.75
2022-09-03T12:38:40.611Z,7.80
2022-09-03T12:41:31.386Z,6.25
2022-09-03T12:44:00.813Z,4.28
2022-09-03T12:46:33.996Z,4.65
2022-09-03T12:52:05.459Z,4.97
2022-09-03T12:54:36.972Z,4.55
2022-09-03T12:57:05.208Z,4.70
2022-09-03T12:59:37.024Z,4.53
2022-09-03T13:02:23.856Z,5.40
2022-09-03T13:04:52.935Z,4.50
2022-09-03T13:07:39.096Z,7.13
2022-09-03T13:10:32.458Z,5.13
2022-09-03T13:13:15.849Z,4.68
2022-09-03T13:16:01.759Z,3.72
2022-09-03T13:18:34.842Z,5.30
2022-09-03T13:21:39.150Z,4.05
2022-09-03T13:24:19.717Z,4.47
2022-09-03T13:27:28.424Z,4.35
2022-09-03T13:30:13.430Z,4.82
2022-09-03T13:32:57.679Z,5.78
2022-09-03T13:35:32.666Z,5.47
2022-09-03T13:38:24.765Z,5.65
2022-09-03T13:40:58.577Z,8.00
2022-09-03T13:43:42.585Z,6.50
2022-09-03T13:46:21.346Z,8.23
2022-09-03T13:49:09.023Z,6.25
2022-09-03T13:51:49.871Z,5.68
2022-09-03T13:54:48.110Z,6.32
2022-09-03T13:57:37.760Z,4.32
2022-09-03T14:00:12.391Z,7.10
2022-09-03T14:02:52.837Z,5.35
2022-09-03T14:05:46.106Z,5.18
2022-09-03T14:08:35.804Z,5.25
2022-09-03T14:11:29.099Z,6.40
2022-09-03T14:14:11.619Z,5.47
2022-09-03T14:16:41.940Z,4.90
2022-09-03T14:19:27.814Z,5.80
2022-09-03T14:22:18.608Z,4.10
2022-09-03T14:25:14.861Z,4.45
2022-09-03T14:27:42.699Z,5.63
2022-09-03T14:30:40.710Z,5.80
2022-09-03T14:33:31.602Z,6.18
2022-09-03T14:36:01.567Z,11.13
2022-09-03T14:38:53.260Z,7.22
2022-09-03T14:41:29.595Z,5.68
2022-09-03T14:44:21.996Z,8.20
2022-09-03T14:46:52.074Z,6.35
2022-09-03T14:50:03.361Z,5.82
2022-09-03T14:52:49.669Z,6.30
2022-09-03T14:55:38.259Z,8.65
2022-09-03T14:58:25.331Z,7.32
2022-09-03T15:01:03.251Z,4.93
2022-09-03T15:04:15.348Z,5.07
2022-09-03T15:07:07.265Z,4.53
2022-09-03T15:09:40.386Z,15.45
2022-09-03T15:12:13.427Z,9.38
2022-09-03T15:14:53.151Z,6.70
2022-09-03T15:17:55.833Z,5.97
2022-09-03T15:20:36.535Z,7.75
2022-09-03T15:23:31.278Z,5.68
2022-09-03T15:26:04.939Z,7.97
2022-09-03T15:29:09.074Z,5.85
2022-09-03T15:31:51.624Z,9.90
2022-09-03T15:34:40.674Z,6.70
2022-09-03T15:37:18.955Z,9.68
2022-09-03T15:39:48.163Z,7.80
2022-09-03T15:42:26.146Z,6.35
2022-09-03T15:45:00.845Z,5.75
2022-09-03T15:47:51.709Z,7.03
2022-09-03T15:50:38.553Z,10.05
2022-09-03T15:53:35.034Z,7.85
2022-09-03T15:56:13.843Z,9.15
2022-09-03T15:58:59.830Z,7.28
2022-09-03T16:02:02.285Z,7.35
2022-09-03T16:04:41.411Z,8.05
2022-09-03T16:07:26.941Z,9.68
2022-09-03T16:10:25.507Z,7.35
2022-09-03T16:13:29.256Z,13.80
2022-09-03T16:15:59.679Z,6.90
2022-09-03T16:18:33.037Z,17.90
2022-09-03T16:21:06.637Z,6.05
2022-09-03T16:23:52.349Z,6.55
2022-09-03T16:26:54.851Z,7.63
2022-09-03T16:29:27.283Z,8.07
2022-09-03T16:32:13.155Z,14.30
2022-09-03T16:35:28.126Z,7.25
2022-09-03T16:38:01.510Z,10.32
2022-09-03T16:40:35.130Z,6.82
2022-09-03T16:43:43.451Z,9.43
2022-09-03T16:46:24.379Z,10.25
2022-09-03T16:49:12.764Z,9.35
2022-09-03T16:51:51.283Z,11.88
2022-09-03T16:54:42.467Z,9.32
2022-09-03T16:57:48.705Z,8.98
2022-09-03T17:00:20.378Z,8.23
2022-09-03T17:03:05.816Z,8.65
2022-09-03T17:05:52.808Z,7.85
2022-09-03T17:08:26.320Z,16.63
2022-09-03T17:11:34.752Z,12.40
2022-09-03T17:14:32.573Z,14.50
2022-09-03T17:17:11.562Z,12.00
2022-09-03T17:19:46.252Z,15.65
2022-09-03T17:22:51.321Z,12.60
2022-09-03T17:25:36.974Z,9.90
2022-09-03T17:28:25.075Z,12.32
2022-09-03T17:31:12.084Z,12.10
2022-09-03T17:34:03.760Z,13.07
2022-09-03T17:36:37.200Z,13.65
2022-09-03T17:39:23.362Z,13.23
2022-09-03T17:41:53.464Z,11.57
2022-09-03T17:44:44.240Z,12.15
2022-09-03T17:48:05.594Z,14.30
2022-09-03T17:51:03.288Z,11.65
2022-09-03T17:53:54.434Z,15.25
2022-09-03T17:56:24.691Z,9.63
2022-09-03T17:59:09.242Z,11.47
2022-09-03T18:01:45.740Z,11.38
2022-09-03T18:04:53.844Z,15.88
2022-09-03T18:07:53.607Z,12.23
2022-09-03T18:10:51.824Z,14.50
2022-09-03T18:13:48.672Z,15.35
2022-09-03T18:16:21.814Z,13.80
2022-09-03T18:18:52.889Z,14.95
2022-09-03T18:21:45.925Z,16.00
2022-09-03T18:24:53.637Z,15.50
2022-09-03T18:27:58.561Z,13.00
2022-09-03T18:30:46.628Z,19.05
2022-09-03T18:33:39.162Z,15.32
2022-09-03T18:36:25.258Z,14.43
2022-09-03T18:39:58.438Z,14.40
2022-09-03T18:43:11.524Z,14.07
2022-09-03T18:49:38.170Z,12.30
2022-09-03T18:52:30.266Z,14.05
2022-09-03T18:55:34.911Z,11.48
2022-09-03T18:58:33.609Z,13.75
2022-09-03T19:01:54.334Z,14.57
2022-09-03T19:05:03.782Z,15.93
2022-09-03T19:08:04.755Z,17.55
2022-09-03T19:11:14.291Z,19.15
2022-09-03T19:14:00.907Z,15.15
2022-09-03T19:17:20.975Z,15.55
2022-09-03T19:20:24.289Z,15.30
2022-09-03T19:23:10.279Z,11.93
2022-09-03T19:25:56.390Z,15.95
2022-09-03T19:28:50.332Z,12.57
2022-09-03T19:32:03.993Z,15.52
2022-09-03T19:35:31.350Z,12.55
2022-09-03T19:38:55.742Z,15.07
2022-09-03T19:41:55.384Z,13.88
2022-09-03T19:45:19.253Z,12.98
2022-09-03T19:48:17.213Z,19.73
2022-09-03T19:51:16.897Z,13.23
2022-09-03T19:54:06.515Z,16.83
2022-09-03T19:56:55.503Z,16.85
2022-09-03T19:59:45.144Z,14.00
2022-09-03T20:02:31.245Z,13.40
2022-09-03T20:05:19.493Z,13.38
2022-09-03T20:08:10.867Z,14.18
2022-09-03T20:13:16.519Z,13.98
2022-09-03T20:16:24.759Z,14.80
2022-09-03T20:19:01.070Z,16.75
2022-09-03T20:21:29.540Z,12.95
2022-09-03T20:24:21.170Z,13.57
2022-09-03T20:27:01.697Z,13.02
2022-09-03T20:29:32.011Z,11.80
2022-09-03T20:32:09.587Z,14.90
2022-09-03T20:35:02.990Z,12.50
2022-09-03T20:38:03.859Z,10.75
2022-09-03T20:40:51.821Z,14.90
2022-09-03T20:44:23.685Z,14.10
2022-09-03T20:47:05.627Z,13.77
2022-09-03T20:49:51.478Z,15.48
2022-09-03T20:52:26.313Z,13.48
2022-09-03T20:55:12.974Z,14.13
2022-09-03T20:57:48.699Z,12.93
2022-09-03T21:00:18.563Z,15.18
2022-09-03T21:02:50.930Z,14.02
2022-09-03T21:05:31.448Z,15.13
2022-09-03T21:08:25.695Z,15.07
2022-09-03T21:10:58.951Z,15.40
2022-09-03T21:13:41.316Z,24.13
2022-09-03T21:16:27.392Z,16.42
2022-09-03T21:18:58.360Z,18.80
2022-09-03T21:21:54.242Z,14.68
2022-09-03T21:24:31.404Z,17.42
2022-09-03T21:27:06.600Z,14.30
2022-09-03T21:29:59.165Z,14.90
2022-09-03T21:32:33.740Z,16.02
2022-09-03T21:35:27.817Z,17.05
2022-09-03T21:38:05.514Z,14.07
2022-09-03T21:40:35.915Z,16.20
2022-09-03T21:43:15.473Z,15.30
2022-09-03T21:46:12.185Z,13.80
2022-09-03T21:48:57.294Z,18.50
2022-09-03T21:51:37.524Z,13.90
2022-09-03T21:54:21.844Z,16.48
2022-09-03T21:57:07.539Z,14.60
2022-09-03T21:59:56.051Z,17.00
2022-09-03T22:02:33.355Z,14.73
2022-09-03T22:05:02.119Z,12.13
2022-09-03T22:07:58.729Z,12.98
2022-09-03T22:10:46.929Z,14.48
2022-09-03T22:13:22.360Z,15.18
2022-09-03T22:15:51.720Z,18.13
2022-09-03T22:18:29.415Z,13.38
2022-09-03T22:21:03.382Z,13.85
2022-09-03T22:23:43.742Z,14.45
2022-09-03T22:26:24.221Z,13.77
2022-09-03T22:29:09.133Z,14.90
2022-09-03T22:32:03.514Z,14.55
2022-09-03T22:34:56.355Z,15.80
2022-09-03T22:37:47.269Z,15.23
2022-09-03T22:40:17.518Z,15.07
2022-09-03T22:42:50.190Z,13.37
2022-09-03T22:45:44.148Z,14.52
2022-09-03T22:48:32.176Z,15.18
2022-09-03T22:51:01.908Z,16.17
2022-09-03T22:53:50.717Z,13.65
2022-09-03T22:56:22.347Z,14.88
2022-09-03T22:59:11.648Z,12.50
2022-09-03T23:01:56.838Z,13.82
2022-09-03T23:04:52.922Z,14.90
2022-09-03T23:07:35.121Z,17.67
2022-09-03T23:10:08.903Z,17.70
2022-09-03T23:12:47.032Z,14.25
2022-09-03T23:15:29.465Z,17.90
2022-09-03T23:18:09.142Z,15.13
2022-09-03T23:20:41.072Z,15.80
2022-09-03T23:23:22.214Z,13.82
2022-09-03T23:28:32.356Z,14.32
2022-09-03T23:31:17.391Z,14.07
2022-09-03T23:33:46.492Z,15.18
2022-09-03T23:36:57.793Z,14.25
2022-09-03T23:39:20.055Z,16.45
2022-09-03T23:41:54.086Z,17.30
2022-09-03T23:44:40.171Z,16.48
2022-09-03T23:47:28.861Z,17.25
2022-09-03T23:50:05.214Z,16.05
2022-09-03T23:52:53.144Z,15.85
2022-09-03T23:55:55.918Z,13.23
2022-09-03T23:58:47.604Z,15.45
